createdAt,value
2018-05-01T00:00:31.225Z,17.60
2018-05-01T00:02:59.430Z,17.60
2018-05-01T00:05:28.490Z,17.40
2018-05-01T00:07:56.756Z,17.40
2018-05-01T00:10:24.926Z,17.50
2018-05-01T00:12:53.119Z,17.40
2018-05-01T00:15:21.342Z,17.50
2018-05-01T00:17:49.518Z,17.40
2018-05-01T00:20:17.807Z,17.40
2018-05-01T00:22:46.019Z,17.40
2018-05-01T00:25:14.196Z,17.40
2018-05-01T00:27:42.468Z,17.50
2018-05-01T00:30:10.683Z,17.50
2018-05-01T00:32:39.080Z,17.50
2018-05-01T00:35:07.291Z,17.50
2018-05-01T00:37:36.042Z,17.50
2018-05-01T00:40:04.360Z,17.50
2018-05-01T00:42:32.542Z,17.40
2018-05-01T00:45:01.621Z,17.50
2018-05-01T00:47:29.797Z,17.40
2018-05-01T00:49:58.174Z,17.40
2018-05-01T00:55:25.040Z,17.40
2018-05-01T00:57:53.293Z,17.40
2018-05-01T01:00:21.590Z,17.20
2018-05-01T01:02:49.856Z,16.40
2018-05-01T01:05:32.167Z,15.70
2018-05-01T01:08:00.437Z,15.70
2018-05-01T01:10:33.185Z,16.40
2018-05-01T01:13:02.210Z,16.50
2018-05-01T01:15:31.186Z,16.80
2018-05-01T01:17:59.357Z,16.80
2018-05-01T01:20:33.812Z,16.80
2018-05-01T01:23:02.890Z,15.10
2018-05-01T01:25:31.167Z,15.00
2018-05-01T01:28:00.272Z,16.00
2018-05-01T01:30:28.534Z,15.90
2018-05-01T01:32:58.221Z,16.40
2018-05-01T01:35:25.688Z,16.40
2018-05-01T01:37:53.167Z,16.50
2018-05-01T01:40:21.366Z,16.40
2018-05-01T01:42:49.611Z,16.60
2018-05-01T01:45:17.050Z,16.50
2018-05-01T01:50:45.123Z,16.60
2018-05-01T01:53:12.619Z,16.60
2018-05-01T01:55:40.174Z,16.50
2018-05-01T01:58:07.599Z,16.40
2018-05-01T02:00:35.057Z,16.50
2018-05-01T02:03:02.514Z,16.60
2018-05-01T02:05:31.278Z,16.50
2018-05-01T02:07:58.778Z,16.60
2018-05-01T02:10:26.215Z,16.60
2018-05-01T02:12:53.643Z,16.60
2018-05-01T02:15:21.111Z,16.50
2018-05-01T02:17:48.611Z,16.50
2018-05-01T02:20:16.893Z,16.50
2018-05-01T02:22:44.536Z,16.50
2018-05-01T02:25:11.974Z,16.40
2018-05-01T02:27:39.402Z,16.40
2018-05-01T02:30:31.705Z,16.40
2018-05-01T02:35:59.592Z,16.20
2018-05-01T02:38:27.025Z,16.30
2018-05-01T02:40:54.618Z,16.30
2018-05-01T02:43:33.113Z,16.40
2018-05-01T02:46:02.172Z,16.40
2018-05-01T02:48:29.602Z,16.40
2018-05-01T02:50:57.034Z,16.40
2018-05-01T02:53:25.299Z,16.40
2018-05-01T02:55:52.726Z,16.40
2018-05-01T02:58:20.150Z,16.30
2018-05-01T03:00:47.611Z,16.20
2018-05-01T03:03:15.069Z,16.20
2018-05-01T03:05:42.547Z,16.20
2018-05-01T03:08:10.040Z,16.10
2018-05-01T03:10:37.556Z,15.70
2018-05-01T03:13:05.027Z,15.10
2018-05-01T03:15:32.457Z,15.40
2018-05-01T03:18:00.061Z,15.00
2018-05-01T03:20:28.993Z,14.90
2018-05-01T03:22:56.422Z,14.90
2018-05-01T03:25:31.954Z,15.20
2018-05-01T03:28:00.233Z,15.50
2018-05-01T03:30:29.244Z,15.30
2018-05-01T03:32:57.483Z,14.90
2018-05-01T03:35:25.058Z,14.80
2018-05-01T03:37:52.515Z,14.30
2018-05-01T03:40:21.507Z,13.60
2018-05-01T03:42:49.787Z,14.00
2018-05-01T03:45:18.726Z,14.00
2018-05-01T03:47:46.159Z,14.00
2018-05-01T03:50:14.382Z,13.50
2018-05-01T03:55:41.964Z,13.30
2018-05-01T03:58:09.437Z,13.80
2018-05-01T04:00:39.006Z,13.40
2018-05-01T04:03:06.490Z,14.00
2018-05-01T04:05:33.912Z,14.70
2018-05-01T04:08:32.402Z,14.90
2018-05-01T04:10:59.899Z,14.70
2018-05-01T04:13:28.891Z,14.90
2018-05-01T04:15:56.327Z,14.90
2018-05-01T04:18:24.023Z,14.80
2018-05-01T04:20:52.194Z,14.90
2018-05-01T04:23:20.434Z,15.10
2018-05-01T04:25:47.914Z,15.10
2018-05-01T04:28:16.186Z,15.20
2018-05-01T04:30:45.130Z,14.70
2018-05-01T04:33:12.587Z,14.70
2018-05-01T04:35:40.098Z,15.00
2018-05-01T04:38:31.898Z,15.20
2018-05-01T04:40:59.726Z,15.20
2018-05-01T04:43:27.242Z,15.10
2018-05-01T04:45:56.168Z,15.40
2018-05-01T04:48:23.625Z,15.40
2018-05-01T04:50:51.062Z,15.30
2018-05-01T04:53:19.300Z,15.40
2018-05-01T04:55:46.726Z,15.40
2018-05-01T04:58:14.225Z,15.30
2018-05-01T05:00:41.700Z,15.30
2018-05-01T05:06:32.102Z,14.90
2018-05-01T05:09:01.094Z,14.90
2018-05-01T05:11:29.281Z,15.00
2018-05-01T05:13:57.607Z,15.20
2018-05-01T05:16:25.093Z,15.10
2018-05-01T05:18:52.522Z,15.20
2018-05-01T05:21:20.022Z,15.20
2018-05-01T05:23:48.246Z,15.20
2018-05-01T05:26:15.752Z,15.20
2018-05-01T05:28:43.194Z,15.30
2018-05-01T05:31:31.347Z,15.40
2018-05-01T05:34:30.908Z,15.20
2018-05-01T05:36:58.474Z,15.20
2018-05-01T05:39:25.970Z,14.30
2018-05-01T05:41:54.255Z,14.70
2018-05-01T05:44:21.682Z,14.70
2018-05-01T05:46:49.138Z,14.40
2018-05-01T05:49:16.558Z,15.00
2018-05-01T05:51:44.170Z,15.10
2018-05-01T05:54:11.630Z,15.30
2018-05-01T05:56:39.090Z,15.20
2018-05-01T05:59:33.128Z,15.20
2018-05-01T06:02:31.045Z,14.30
2018-05-01T06:04:59.306Z,14.40
2018-05-01T06:07:27.600Z,15.00
2018-05-01T06:09:55.958Z,14.80
2018-05-01T06:12:32.013Z,14.80
2018-05-01T06:14:59.572Z,14.80
2018-05-01T06:17:27.001Z,14.60
2018-05-01T06:19:54.490Z,14.70
2018-05-01T06:22:21.912Z,14.60
2018-05-01T06:24:49.407Z,14.70
2018-05-01T06:27:31.503Z,15.10
2018-05-01T06:30:30.664Z,15.20
2018-05-01T06:32:58.099Z,15.10
2018-05-01T06:35:25.620Z,15.30
2018-05-01T06:37:53.223Z,15.30
2018-05-01T06:40:20.732Z,15.40
2018-05-01T06:42:49.019Z,14.80
2018-05-01T06:45:16.459Z,14.80
2018-05-01T06:47:43.942Z,14.80
2018-05-01T06:50:12.265Z,14.70
2018-05-01T06:52:39.696Z,14.60
2018-05-01T06:55:07.130Z,14.60
2018-05-01T06:57:35.354Z,14.40
2018-05-01T07:00:02.837Z,14.40
2018-05-01T07:02:30.264Z,14.20
2018-05-01T07:04:57.741Z,14.20
2018-05-01T07:07:25.173Z,14.10
2018-05-01T07:09:52.676Z,14.00
2018-05-01T07:12:20.226Z,13.90
2018-05-01T07:14:47.686Z,13.80
2018-05-01T07:17:16.719Z,13.70
2018-05-01T07:19:44.186Z,13.70
2018-05-01T07:22:11.682Z,13.80
2018-05-01T07:24:39.242Z,13.80
2018-05-01T07:27:06.676Z,13.60
2018-05-01T07:29:34.144Z,13.40
2018-05-01T07:32:01.613Z,13.70
2018-05-01T07:34:29.905Z,13.60
2018-05-01T07:39:58.078Z,13.60
2018-05-01T07:42:25.512Z,13.50
2018-05-01T07:44:52.944Z,13.60
2018-05-01T07:47:20.450Z,13.70
2018-05-01T07:49:47.900Z,13.70
2018-05-01T07:52:15.330Z,13.90
2018-05-01T07:54:42.805Z,13.80
2018-05-01T07:57:10.283Z,13.90
2018-05-01T07:59:37.701Z,13.70
2018-05-01T08:02:06.863Z,13.90
2018-05-01T08:04:35.111Z,14.50
2018-05-01T08:07:04.084Z,14.40
2018-05-01T08:09:32.477Z,14.80
2018-05-01T08:11:59.918Z,14.70
2018-05-01T08:14:27.390Z,14.60
2018-05-01T08:16:56.376Z,14.90
2018-05-01T08:19:31.831Z,14.90
2018-05-01T08:29:31.003Z,15.40
2018-05-01T08:34:59.331Z,15.30
2018-05-01T08:37:33.041Z,15.40
2018-05-01T08:40:32.023Z,15.60
2018-05-01T08:42:59.589Z,15.60
2018-05-01T08:45:33.230Z,15.70
2018-05-01T08:48:31.418Z,15.70
2018-05-01T08:50:59.683Z,15.80
2018-05-01T08:53:28.617Z,15.90
2018-05-01T08:55:56.047Z,15.90
2018-05-01T08:58:24.502Z,15.90
2018-05-01T09:06:54.458Z,16.10
2018-05-01T09:09:21.911Z,16.00
2018-05-01T09:11:50.191Z,16.10
2018-05-01T09:14:19.173Z,16.10
2018-05-01T09:16:46.639Z,16.10
2018-05-01T09:19:31.427Z,16.10
2018-05-01T09:21:59.631Z,16.10
2018-05-01T09:24:27.197Z,16.10
2018-05-01T09:26:54.675Z,16.10
2018-05-01T09:29:32.574Z,16.40
2018-05-01T09:32:30.850Z,16.40
2018-05-01T09:34:58.301Z,16.60
2018-05-01T09:37:25.725Z,16.80
2018-05-01T09:39:53.185Z,17.00
2018-05-01T09:42:33.833Z,17.00
2018-05-01T09:45:02.062Z,17.00
2018-05-01T09:47:29.555Z,17.00
2018-05-01T09:49:57.813Z,17.30
2018-05-01T09:52:26.794Z,17.30
2018-05-01T09:54:55.150Z,17.30
2018-05-01T09:57:23.362Z,17.40
2018-05-01T10:02:52.394Z,17.70
2018-05-01T10:05:21.366Z,17.90
2018-05-01T10:07:49.722Z,17.90
2018-05-01T10:10:18.017Z,18.10
2018-05-01T10:12:46.284Z,18.00
2018-05-01T10:15:32.333Z,18.20
2018-05-01T10:18:00.525Z,18.30
2018-05-01T10:20:28.697Z,18.20
2018-05-01T10:22:56.926Z,18.30
2018-05-01T10:25:25.140Z,18.50
2018-05-01T10:27:53.325Z,18.60
2018-05-01T10:30:21.542Z,18.60
2018-05-01T10:32:50.478Z,18.80
2018-05-01T10:35:18.759Z,18.80
2018-05-01T10:37:47.083Z,18.90
2018-05-01T10:40:15.265Z,19.00
2018-05-01T10:42:44.245Z,19.00
2018-05-01T10:45:12.441Z,18.90
2018-05-01T10:47:41.390Z,19.30
2018-05-01T10:50:09.558Z,19.20
2018-05-01T10:52:37.766Z,19.40
2018-05-01T10:55:06.734Z,19.50
2018-05-01T10:57:35.015Z,19.50
2018-05-01T11:00:03.221Z,19.60
2018-05-01T11:02:32.170Z,19.70
2018-05-01T11:05:00.359Z,19.70
2018-05-01T11:07:35.075Z,19.80
2018-05-01T11:10:31.683Z,19.90
2018-05-01T11:13:00.054Z,20.00
2018-05-01T11:15:28.285Z,20.00
2018-05-01T11:23:47.973Z,19.90
2018-05-01T11:26:16.247Z,20.10
2018-05-01T11:28:45.145Z,20.30
2018-05-01T11:31:13.421Z,20.30
2018-05-01T11:33:41.628Z,20.50
2018-05-01T11:36:10.599Z,20.50
2018-05-01T11:38:38.883Z,20.40
2018-05-01T11:41:07.115Z,20.30
2018-05-01T11:43:35.333Z,20.50
2018-05-01T11:46:03.601Z,20.60
2018-05-01T11:48:32.304Z,20.60
2018-05-01T11:51:01.269Z,20.80
2018-05-01T11:53:33.259Z,20.90
2018-05-01T11:56:02.278Z,21.10
2018-05-01T11:58:30.461Z,21.10
2018-05-01T12:00:58.673Z,21.10
2018-05-01T12:03:33.051Z,21.30
2018-05-01T12:09:02.625Z,21.90
2018-05-01T12:11:30.900Z,21.80
2018-05-01T12:13:59.287Z,21.90
2018-05-01T12:16:34.218Z,21.90
2018-05-01T12:19:02.487Z,22.00
2018-05-01T12:21:30.725Z,22.00
2018-05-01T12:23:58.943Z,22.00
2018-05-01T12:26:27.842Z,22.00
2018-05-01T12:31:56.879Z,22.20
2018-05-01T12:34:32.234Z,22.30
2018-05-01T12:37:00.630Z,22.20
2018-05-01T12:39:29.530Z,22.30
2018-05-01T12:41:57.718Z,22.30
2018-05-01T12:44:25.950Z,22.60
2018-05-01T12:46:54.123Z,22.70
2018-05-01T12:49:22.296Z,22.80
2018-05-01T12:51:50.535Z,22.90
2018-05-01T12:54:19.516Z,22.70
2018-05-01T12:56:47.780Z,22.70
2018-05-01T12:59:16.811Z,22.90
2018-05-01T13:01:45.073Z,22.80
2018-05-01T13:04:14.023Z,23.20
2018-05-01T13:06:42.293Z,23.10
2018-05-01T13:09:10.486Z,23.20
2018-05-01T13:11:38.653Z,23.00
2018-05-01T13:14:32.827Z,23.40
2018-05-01T13:17:30.728Z,22.90
2018-05-01T13:19:59.730Z,23.50
2018-05-01T13:22:28.710Z,23.80
2018-05-01T13:24:56.885Z,23.70
2018-05-01T13:27:25.108Z,23.70
2018-05-01T13:29:53.293Z,23.50
2018-05-01T13:32:21.483Z,23.10
2018-05-01T13:34:49.690Z,23.10
2018-05-01T13:37:17.848Z,23.40
2018-05-01T13:39:46.027Z,23.50
2018-05-01T13:42:34.250Z,23.70
2018-05-01T13:45:32.575Z,23.20
2018-05-01T13:48:01.647Z,22.60
2018-05-01T13:50:29.982Z,22.60
2018-05-01T13:52:58.890Z,22.60
2018-05-01T13:55:27.106Z,22.60
2018-05-01T13:57:56.083Z,23.30
2018-05-01T14:00:24.267Z,23.30
2018-05-01T14:02:53.247Z,22.90
2018-05-01T14:05:21.509Z,23.00
2018-05-01T14:07:49.795Z,22.80
2018-05-01T14:10:32.463Z,22.70
2018-05-01T14:13:00.634Z,22.60
2018-05-01T14:15:28.820Z,22.50
2018-05-01T14:17:57.029Z,22.60
2018-05-01T14:20:25.201Z,22.80
2018-05-01T14:22:53.442Z,22.70
2018-05-01T14:25:21.705Z,22.60
2018-05-01T14:27:50.797Z,23.00
2018-05-01T14:30:18.981Z,23.30
2018-05-01T14:32:47.266Z,23.00
2018-05-01T14:35:15.465Z,23.30
2018-05-01T14:40:44.074Z,23.40
2018-05-01T14:43:12.250Z,22.70
2018-05-01T14:45:40.426Z,22.30
2018-05-01T14:48:10.237Z,22.80
2018-05-01T14:50:38.415Z,22.80
2018-05-01T14:53:06.590Z,22.50
2018-05-01T14:55:34.797Z,22.80
2018-05-01T14:58:02.988Z,22.80
2018-05-01T15:00:31.167Z,22.90
2018-05-01T15:03:06.099Z,23.20
2018-05-01T15:05:34.295Z,22.50
2018-05-01T15:08:32.847Z,22.40
2018-05-01T15:11:01.483Z,22.50
2018-05-01T15:13:29.656Z,22.60
2018-05-01T15:15:57.861Z,22.50
2018-05-01T15:18:26.038Z,22.40
2018-05-01T15:20:54.369Z,22.10
2018-05-01T15:23:22.565Z,22.00
2018-05-01T15:25:51.537Z,21.80
2018-05-01T15:28:19.713Z,21.80
2018-05-01T15:30:47.927Z,21.70
2018-05-01T15:33:32.552Z,22.00
2018-05-01T15:39:01.579Z,22.20
2018-05-01T15:41:30.621Z,22.10
2018-05-01T15:43:58.798Z,22.10
2018-05-01T15:46:27.243Z,21.90
2018-05-01T15:48:55.423Z,22.10
2018-05-01T15:51:23.654Z,22.00
2018-05-01T15:53:51.925Z,22.40
2018-05-01T15:56:20.093Z,22.50
2018-05-01T15:58:48.274Z,22.70
2018-05-01T16:01:33.453Z,22.80
2018-05-01T16:04:31.535Z,22.70
2018-05-01T16:06:59.805Z,22.70
2018-05-01T16:09:27.992Z,22.80
2018-05-01T16:11:56.951Z,23.00
2018-05-01T16:14:25.278Z,23.00
2018-05-01T16:16:53.354Z,23.10
2018-05-01T16:19:21.525Z,23.10
2018-05-01T16:21:49.739Z,22.90
2018-05-01T16:24:17.918Z,23.00
2018-05-01T16:26:46.099Z,23.10
2018-05-01T16:29:14.407Z,23.10
2018-05-01T16:34:44.084Z,23.10
2018-05-01T16:37:12.280Z,23.20
2018-05-01T16:39:40.531Z,23.20
2018-05-01T16:42:32.498Z,23.20
2018-05-01T16:45:00.776Z,23.00
2018-05-01T16:47:34.760Z,22.80
2018-05-01T16:50:02.956Z,22.60
2018-05-01T16:52:31.144Z,22.50
2018-05-01T16:55:00.118Z,22.70
2018-05-01T16:57:28.403Z,22.70
2018-05-01T16:59:56.593Z,22.70
2018-05-01T17:02:25.571Z,22.60
2018-05-01T17:04:53.751Z,22.60
2018-05-01T17:07:22.735Z,22.60
2018-05-01T17:09:50.937Z,22.50
2018-05-01T17:12:19.889Z,22.60
2018-05-01T17:20:49.694Z,22.20
2018-05-01T17:23:17.881Z,22.10
2018-05-01T17:25:46.067Z,21.90
2018-05-01T17:28:14.349Z,21.90
2018-05-01T17:30:42.530Z,21.80
2018-05-01T17:33:11.543Z,21.60
2018-05-01T17:35:40.241Z,21.50
2018-05-01T17:38:09.197Z,21.80
2018-05-01T17:40:37.369Z,21.80
2018-05-01T17:43:05.576Z,21.90
2018-05-01T17:45:34.526Z,22.10
2018-05-01T17:48:32.545Z,22.10
2018-05-01T17:51:01.497Z,22.00
2018-05-01T17:53:29.696Z,22.00
2018-05-01T17:55:57.913Z,22.00
2018-05-01T17:58:26.104Z,21.60
2018-05-01T18:00:54.312Z,21.60
2018-05-01T18:03:22.658Z,21.70
2018-05-01T18:05:50.851Z,21.70
2018-05-01T18:08:19.041Z,21.70
2018-05-01T18:13:48.670Z,21.40
2018-05-01T18:16:16.951Z,21.40
2018-05-01T18:18:45.899Z,21.30
2018-05-01T18:21:14.228Z,21.30
2018-05-01T18:23:43.207Z,21.60
2018-05-01T18:26:11.477Z,21.50
2018-05-01T18:28:39.710Z,21.60
2018-05-01T18:31:07.891Z,21.60
2018-05-01T18:33:36.110Z,21.50
2018-05-01T18:36:04.327Z,21.50
2018-05-01T18:38:32.621Z,21.50
2018-05-01T18:41:00.825Z,21.50
2018-05-01T18:43:29.045Z,21.50
2018-05-01T18:48:57.507Z,21.30
2018-05-01T18:51:26.546Z,21.20
2018-05-01T18:53:54.743Z,21.00
2018-05-01T18:56:22.982Z,20.70
2018-05-01T18:58:51.231Z,20.40
2018-05-01T19:01:20.187Z,20.30
2018-05-01T19:03:48.502Z,20.30
2018-05-01T19:06:33.807Z,20.40
2018-05-01T19:09:02.196Z,20.30
2018-05-01T19:11:30.390Z,20.30
2018-05-01T19:13:58.588Z,20.20
2018-05-01T19:16:33.339Z,20.10
2018-05-01T19:19:02.310Z,20.00
2018-05-01T19:21:30.621Z,20.00
2018-05-01T19:23:58.994Z,20.40
2018-05-01T19:26:27.993Z,20.50
2018-05-01T19:28:56.881Z,18.80
2018-05-01T19:31:25.136Z,20.40
2018-05-01T19:33:54.133Z,20.30
2018-05-01T19:36:23.128Z,20.40
2018-05-01T19:38:52.340Z,20.40
2018-05-01T19:41:21.441Z,20.30
2018-05-01T19:46:38.497Z,20.30
2018-05-01T19:49:06.696Z,20.20
2018-05-01T19:51:34.910Z,20.10
2018-05-01T19:54:03.325Z,20.10
2018-05-01T19:56:31.617Z,20.10
2018-05-01T20:05:00.350Z,20.00
2018-05-01T20:07:30.067Z,20.00
2018-05-01T20:09:58.309Z,20.00
2018-05-01T20:12:32.644Z,19.80
2018-05-01T20:15:00.900Z,19.40
2018-05-01T20:17:29.083Z,19.70
2018-05-01T20:19:57.494Z,19.80
2018-05-01T20:22:25.682Z,19.70
2018-05-01T20:24:54.765Z,19.50
2018-05-01T20:27:33.348Z,19.50
2018-05-01T20:30:32.110Z,19.30
2018-05-01T20:33:00.352Z,19.30
2018-05-01T20:35:29.399Z,19.40
2018-05-01T20:37:57.632Z,19.40
2018-05-01T20:40:32.460Z,19.00
2018-05-01T20:43:01.413Z,18.60
2018-05-01T20:45:29.638Z,18.60
2018-05-01T20:47:58.664Z,17.90
2018-05-01T20:50:26.874Z,17.90
2018-05-01T20:52:55.098Z,17.60
2018-05-01T20:55:23.340Z,17.70
2018-05-01T20:57:52.345Z,16.80
2018-05-01T21:00:21.150Z,16.80
2018-05-01T21:02:49.411Z,16.50
2018-05-01T21:05:18.361Z,16.40
2018-05-01T21:07:46.541Z,16.40
2018-05-01T21:10:14.822Z,16.30
2018-05-01T21:12:43.003Z,16.30
2018-05-01T21:15:11.995Z,16.30
2018-05-01T21:17:40.978Z,16.20
2018-05-01T21:20:33.343Z,16.00
2018-05-01T21:23:02.291Z,15.80
2018-05-01T21:25:30.546Z,15.70
2018-05-01T21:27:58.736Z,15.70
2018-05-01T21:30:33.149Z,15.60
2018-05-01T21:33:01.452Z,15.70
2018-05-01T21:35:31.258Z,16.00
2018-05-01T21:38:00.974Z,16.00
2018-05-01T21:40:32.730Z,16.00
2018-05-01T21:43:01.059Z,16.30
2018-05-01T21:45:30.135Z,16.80
2018-05-01T21:47:58.374Z,16.80
2018-05-01T21:50:28.130Z,17.10
2018-05-01T21:52:56.411Z,17.10
2018-05-01T21:55:33.184Z,15.90
2018-05-01T21:58:02.020Z,15.90
2018-05-01T22:00:30.974Z,15.40
2018-05-01T22:02:59.303Z,15.30
2018-05-01T22:05:33.359Z,15.40
2018-05-01T22:08:01.686Z,15.60
2018-05-01T22:10:29.862Z,15.70
2018-05-01T22:12:58.034Z,15.60
2018-05-01T22:15:26.260Z,15.70
2018-05-01T22:20:56.063Z,14.70
2018-05-01T22:23:25.027Z,14.70
2018-05-01T22:25:53.343Z,14.70
2018-05-01T22:28:21.587Z,14.60
2018-05-01T22:30:49.816Z,14.70
2018-05-01T22:33:18.138Z,15.00
2018-05-01T22:35:47.184Z,14.50
2018-05-01T22:38:15.498Z,14.40
2018-05-01T22:40:45.390Z,14.10
2018-05-01T22:43:14.469Z,14.20
2018-05-01T22:45:42.649Z,14.20
2018-05-01T22:48:10.853Z,14.30
2018-05-01T22:50:39.793Z,14.20
2018-05-01T22:53:08.080Z,14.20
2018-05-01T22:55:36.361Z,14.20
2018-05-01T22:58:04.571Z,14.10
2018-05-01T23:00:33.665Z,14.00
2018-05-01T23:03:31.055Z,13.70
2018-05-01T23:06:00.079Z,13.70
2018-05-01T23:08:28.294Z,13.70
2018-05-01T23:10:56.482Z,13.70
2018-05-01T23:13:25.454Z,13.50
2018-05-01T23:15:54.461Z,13.60
2018-05-01T23:18:23.406Z,13.40
2018-05-01T23:20:51.606Z,13.40
2018-05-01T23:23:19.894Z,13.40
2018-05-01T23:25:48.890Z,13.60
2018-05-01T23:28:32.908Z,13.70
2018-05-01T23:31:01.091Z,13.70
2018-05-01T23:33:29.371Z,13.80
2018-05-01T23:35:59.126Z,13.50
2018-05-01T23:38:27.363Z,13.50
2018-05-01T23:40:56.315Z,13.20
2018-05-01T23:43:24.631Z,13.20
2018-05-01T23:45:53.831Z,13.40
2018-05-01T23:48:22.006Z,13.40
2018-05-01T23:50:50.995Z,13.50
2018-05-01T23:53:20.730Z,13.40
2018-05-01T23:55:49.681Z,13.20
2018-05-01T23:58:17.863Z,13.20
